Time;durP1;ratioP1;P1;durP2;ratioP2;P2;SDS_P1;SDS_P2;PMS_P1;PMS_P2;Temp;Humidity;BMP_temperature;BMP_pressure;BME280_temperature;BME280_humidity;BME280_pressure;Samples;Min_cycle;Max_cycle;Signal;HPM_P1;HPM_P2
2021/10/10 00:01:31;;;;;;;27.87;14.10;;;;;;;;;;4974168;28;20231;-80
2021/10/10 00:03:58;;;;;;;30.73;14.10;;;;;;;;;;4978556;28;20336;-76
2021/10/10 00:06:25;;;;;;;30.17;13.90;;;;;;;;;;4966311;28;20229;-76
2021/10/10 00:08:53;;;;;;;29.33;15.30;;;;;;;;;;4968337;28;20233;-78
2021/10/10 00:11:20;;;;;;;38.37;15.80;;;;;;;;;;4973267;28;21005;-78
2021/10/10 00:13:48;;;;;;;31.37;13.63;;;;;;;;;;4976854;28;20297;-77
2021/10/10 00:16:15;;;;;;;32.03;14.70;;;;;;;;;;4975142;28;20883;-77
2021/10/10 00:18:43;;;;;;;28.53;14.87;;;;;;;;;;4977281;28;20209;-78
2021/10/10 00:21:10;;;;;;;31.50;14.73;;;;;;;;;;4974387;28;20225;-78
2021/10/10 00:23:38;;;;;;;33.30;14.70;;;;;;;;;;4974782;28;21177;-77
2021/10/10 00:26:05;;;;;;;34.77;13.20;;;;;;;;;;4978657;28;20275;-78
2021/10/10 00:28:32;;;;;;;35.67;13.60;;;;;;;;;;4979239;28;20301;-79
2021/10/10 00:31:00;;;;;;;31.00;14.17;;;;;;;;;;4978249;28;20406;-78
2021/10/10 00:33:27;;;;;;;27.63;13.50;;;;;;;;;;4982025;28;21608;-77
2021/10/10 00:35:56;;;;;;;28.60;13.27;;;;;;;;;;4976119;28;21255;-78
2021/10/10 00:38:23;;;;;;;30.47;14.10;;;;;;;;;;4976377;28;20301;-78
2021/10/10 00:40:50;;;;;;;30.93;14.20;;;;;;;;;;4978891;28;20805;-79
2021/10/10 00:43:17;;;;;;;30.90;13.87;;;;;;;;;;4980534;28;20328;-78
2021/10/10 00:45:47;;;;;;;27.30;13.17;;;;;;;;;;4982115;28;20236;-82
2021/10/10 00:48:15;;;;;;;30.70;13.43;;;;;;;;;;4978637;28;20648;-78
2021/10/10 00:50:42;;;;;;;31.07;13.40;;;;;;;;;;4977714;28;20837;-77
2021/10/10 00:53:12;;;;;;;29.33;14.27;;;;;;;;;;4979041;28;20284;-77
2021/10/10 00:55:39;;;;;;;28.57;14.10;;;;;;;;;;4975670;28;20820;-76
2021/10/10 00:58:08;;;;;;;32.13;13.53;;;;;;;;;;4976141;28;20209;-76
2021/10/10 01:00:35;;;;;;;33.20;13.80;;;;;;;;;;4977734;28;20224;-76
2021/10/10 01:03:02;;;;;;;30.20;13.60;;;;;;;;;;4974127;28;20213;-77
2021/10/10 01:05:30;;;;;;;28.40;13.27;;;;;;;;;;4977022;28;20338;-77
2021/10/10 01:07:57;;;;;;;30.07;12.97;;;;;;;;;;4977444;28;20213;-77
2021/10/10 01:10:25;;;;;;;28.23;13.53;;;;;;;;;;4976670;28;20933;-77
2021/10/10 01:12:53;;;;;;;29.80;13.13;;;;;;;;;;4975716;28;20201;-77
2021/10/10 01:15:20;;;;;;;30.73;13.00;;;;;;;;;;4981793;28;20291;-77
2021/10/10 01:17:50;;;;;;;28.63;12.57;;;;;;;;;;4985509;28;20534;-77
2021/10/10 01:20:20;;;;;;;32.67;12.47;;;;;;;;;;4986787;28;20476;-77
2021/10/10 01:22:49;;;;;;;23.17;11.20;;;;;;;;;;4977425;28;20233;-77
2021/10/10 01:25:16;;;;;;;28.77;12.03;;;;;;;;;;4976025;28;20749;-77
2021/10/10 01:27:43;;;;;;;26.57;12.20;;;;;;;;;;4977509;28;20571;-77
2021/10/10 01:30:10;;;;;;;27.23;11.53;;;;;;;;;;4977650;28;20571;-77
2021/10/10 01:32:38;;;;;;;26.63;11.73;;;;;;;;;;4976051;28;20748;-77
2021/10/10 01:35:05;;;;;;;27.73;12.30;;;;;;;;;;4976449;28;20464;-77
2021/10/10 01:37:32;;;;;;;27.80;12.00;;;;;;;;;;4977777;28;20580;-77
2021/10/10 01:40:01;;;;;;;31.07;13.20;;;;;;;;;;4975076;28;20422;-77
2021/10/10 01:42:28;;;;;;;26.83;12.40;;;;;;;;;;4976113;28;20387;-77
2021/10/10 01:44:55;;;;;;;30.63;12.83;;;;;;;;;;4975916;28;20209;-77
2021/10/10 01:47:23;;;;;;;29.60;13.10;;;;;;;;;;4975088;28;20555;-77
2021/10/10 01:49:50;;;;;;;27.33;12.13;;;;;;;;;;4976843;28;20264;-77
2021/10/10 01:52:17;;;;;;;26.97;12.00;;;;;;;;;;4976793;28;20546;-77
2021/10/10 01:54:44;;;;;;;27.23;12.27;;;;;;;;;;4978205;28;20473;-77
2021/10/10 01:57:13;;;;;;;31.53;12.33;;;;;;;;;;4976883;28;20244;-77
2021/10/10 01:59:40;;;;;;;29.00;12.67;;;;;;;;;;4976810;28;21007;-77
2021/10/10 02:02:07;;;;;;;26.40;11.23;;;;;;;;;;4978497;28;21677;-78
2021/10/10 02:04:34;;;;;;;31.77;11.27;;;;;;;;;;4980143;28;21771;-77
2021/10/10 02:07:01;;;;;;;25.60;11.73;;;;;;;;;;4979194;28;20498;-77
2021/10/10 02:09:29;;;;;;;23.73;11.00;;;;;;;;;;4978724;28;20464;-77
2021/10/10 02:11:56;;;;;;;26.83;11.70;;;;;;;;;;4977462;28;20994;-78
2021/10/10 02:14:24;;;;;;;26.47;12.00;;;;;;;;;;4980730;28;20590;-77
2021/10/10 02:16:51;;;;;;;28.07;10.80;;;;;;;;;;4983477;28;20486;-78
2021/10/10 02:19:19;;;;;;;35.43;12.53;;;;;;;;;;4987439;28;20474;-77
2021/10/10 02:21:46;;;;;;;24.67;10.67;;;;;;;;;;4990156;28;20232;-77
2021/10/10 02:24:13;;;;;;;21.47;10.70;;;;;;;;;;4984167;28;20468;-77
2021/10/10 02:26:40;;;;;;;26.13;10.70;;;;;;;;;;4983623;28;20491;-78
2021/10/10 02:29:07;;;;;;;26.97;11.57;;;;;;;;;;4982976;28;20507;-77
2021/10/10 02:31:42;;;;;;;24.17;10.87;;;;;;;;;;4982422;28;20847;-77
2021/10/10 02:34:09;;;;;;;24.87;10.33;;;;;;;;;;4984406;28;20209;-77
2021/10/10 02:36:36;;;;;;;24.07;11.20;;;;;;;;;;4982384;28;20510;-78
2021/10/10 02:39:04;;;;;;;24.73;10.63;;;;;;;;;;4981602;28;20500;-77
2021/10/10 02:41:31;;;;;;;28.00;11.00;;;;;;;;;;4981497;28;21114;-77
2021/10/10 02:43:58;;;;;;;26.57;10.93;;;;;;;;;;4983379;28;20550;-77
2021/10/10 02:46:25;;;;;;;23.97;11.00;;;;;;;;;;4981504;28;21635;-77
2021/10/10 02:48:54;;;;;;;23.67;11.17;;;;;;;;;;4979673;28;20301;-78
2021/10/10 02:51:21;;;;;;;23.97;10.97;;;;;;;;;;4982461;28;20545;-78
2021/10/10 02:53:49;;;;;;;32.80;10.93;;;;;;;;;;4981872;28;20567;-77
2021/10/10 02:56:16;;;;;;;24.57;11.17;;;;;;;;;;4979131;28;20499;-77
2021/10/10 02:58:43;;;;;;;21.73;10.03;;;;;;;;;;4981565;28;20574;-78
2021/10/10 03:01:10;;;;;;;29.17;10.67;;;;;;;;;;4980777;28;20228;-77
2021/10/10 03:03:38;;;;;;;22.47;10.43;;;;;;;;;;4979945;28;20921;-77
2021/10/10 03:06:07;;;;;;;28.27;10.67;;;;;;;;;;4981529;28;20506;-77
2021/10/10 03:08:35;;;;;;;24.93;11.37;;;;;;;;;;4983447;28;20460;-77
2021/10/10 03:11:03;;;;;;;25.53;10.73;;;;;;;;;;4980033;28;20572;-77
2021/10/10 03:13:30;;;;;;;24.03;10.57;;;;;;;;;;4981632;28;20456;-77
2021/10/10 03:15:57;;;;;;;26.97;10.80;;;;;;;;;;4979434;28;20551;-77
2021/10/10 03:18:24;;;;;;;27.50;10.77;;;;;;;;;;4981757;28;20515;-76
2021/10/10 03:20:51;;;;;;;24.13;11.00;;;;;;;;;;4981384;28;20568;-77
2021/10/10 03:23:20;;;;;;;23.70;10.23;;;;;;;;;;4981176;28;20551;-76
2021/10/10 03:25:47;;;;;;;26.33;10.90;;;;;;;;;;4983935;28;20511;-77
2021/10/10 03:28:14;;;;;;;25.30;11.20;;;;;;;;;;4985588;28;20486;-77
2021/10/10 03:30:42;;;;;;;25.97;10.77;;;;;;;;;;4979303;28;20567;-76
2021/10/10 03:33:09;;;;;;;25.87;10.03;;;;;;;;;;4979082;28;20607;-77
2021/10/10 03:35:36;;;;;;;25.93;10.23;;;;;;;;;;4977267;28;20205;-76
2021/10/10 03:38:04;;;;;;;27.93;10.40;;;;;;;;;;4978283;28;20563;-76
2021/10/10 03:40:32;;;;;;;28.23;10.83;;;;;;;;;;4985304;28;20514;-77
2021/10/10 03:43:00;;;;;;;21.37;10.43;;;;;;;;;;4988798;28;20461;-77
2021/10/10 03:45:27;;;;;;;26.47;11.23;;;;;;;;;;4987996;28;20536;-78
2021/10/10 03:47:54;;;;;;;23.93;10.90;;;;;;;;;;4988462;28;20495;-78
2021/10/10 03:50:21;;;;;;;26.63;10.90;;;;;;;;;;4988917;28;20507;-77
2021/10/10 03:52:48;;;;;;;25.77;10.37;;;;;;;;;;4990211;28;20527;-78
2021/10/10 03:57:58;;;;;;;18.90;9.33;;;;;;;;;;4988772;28;20547;-78
2021/10/10 04:00:26;;;;;;;24.90;10.17;;;;;;;;;;4989593;28;20539;-77
2021/10/10 04:02:53;;;;;;;25.20;10.70;;;;;;;;;;4988199;28;20467;-77
2021/10/10 04:05:23;;;;;;;28.03;10.27;;;;;;;;;;4987027;28;20587;-77
2021/10/10 04:07:50;;;;;;;27.73;10.57;;;;;;;;;;4987889;28;20468;-77
2021/10/10 04:10:17;;;;;;;24.10;10.17;;;;;;;;;;4989085;28;20498;-78
2021/10/10 04:12:45;;;;;;;27.37;11.00;;;;;;;;;;4989066;28;20504;-76
2021/10/10 04:15:13;;;;;;;25.77;11.03;;;;;;;;;;4987612;28;20570;-78
2021/10/10 04:17:41;;;;;;;25.37;10.37;;;;;;;;;;4989182;28;20464;-78
2021/10/10 04:20:09;;;;;;;21.30;9.77;;;;;;;;;;4995020;28;20480;-77
2021/10/10 04:22:36;;;;;;;27.03;10.70;;;;;;;;;;4987330;28;20551;-79
2021/10/10 04:25:04;;;;;;;23.37;10.67;;;;;;;;;;4984283;28;20516;-77
2021/10/10 04:27:33;;;;;;;26.90;10.50;;;;;;;;;;4985856;28;20519;-77
2021/10/10 04:30:00;;;;;;;25.47;11.03;;;;;;;;;;4984748;28;20607;-78
2021/10/10 04:32:29;;;;;;;26.27;10.87;;;;;;;;;;4989232;28;20476;-77
2021/10/10 04:34:56;;;;;;;21.57;9.87;;;;;;;;;;4999138;28;20490;-77
2021/10/10 04:37:23;;;;;;;25.37;10.60;;;;;;;;;;4993397;28;20464;-77
2021/10/10 04:39:50;;;;;;;27.37;11.33;;;;;;;;;;4984842;28;20520;-78
2021/10/10 04:42:17;;;;;;;25.77;11.20;;;;;;;;;;4985350;28;20935;-78
2021/10/10 04:44:45;;;;;;;26.40;11.23;;;;;;;;;;4985955;28;20496;-78
2021/10/10 04:47:12;;;;;;;25.53;11.20;;;;;;;;;;4986740;28;21238;-77
2021/10/10 04:49:40;;;;;;;29.50;11.77;;;;;;;;;;4985209;28;20544;-77
2021/10/10 04:52:08;;;;;;;25.33;11.27;;;;;;;;;;4983863;28;20464;-77
2021/10/10 04:54:35;;;;;;;29.43;11.40;;;;;;;;;;4982121;28;20512;-77
2021/10/10 04:57:02;;;;;;;26.80;10.87;;;;;;;;;;4984949;28;20480;-78
2021/10/10 04:59:29;;;;;;;25.97;11.17;;;;;;;;;;4982138;28;20535;-77
2021/10/10 05:01:57;;;;;;;29.97;11.37;;;;;;;;;;4982908;28;20449;-77
2021/10/10 05:04:24;;;;;;;30.57;12.30;;;;;;;;;;4981550;28;20460;-77
2021/10/10 05:06:54;;;;;;;27.93;11.80;;;;;;;;;;4978686;28;20560;-78
2021/10/10 05:09:21;;;;;;;31.40;12.47;;;;;;;;;;4980507;28;20504;-77
2021/10/10 05:11:51;;;;;;;29.40;11.77;;;;;;;;;;4978540;28;20503;-77
2021/10/10 05:14:18;;;;;;;29.27;12.20;;;;;;;;;;4972470;28;20467;-77
2021/10/10 05:16:45;;;;;;;31.90;12.30;;;;;;;;;;4977587;28;20516;-77
2021/10/10 05:19:13;;;;;;;32.47;13.27;;;;;;;;;;4984328;28;20487;-78
2021/10/10 05:21:40;;;;;;;25.33;11.70;;;;;;;;;;4984906;28;21169;-78
2021/10/10 05:24:08;;;;;;;30.77;12.20;;;;;;;;;;4990430;28;20452;-78
2021/10/10 05:26:36;;;;;;;29.90;12.17;;;;;;;;;;4985722;28;20503;-76
2021/10/10 05:29:03;;;;;;;32.03;12.43;;;;;;;;;;4981620;28;20484;-77
2021/10/10 05:31:30;;;;;;;30.77;11.80;;;;;;;;;;4979798;28;20515;-78
2021/10/10 05:33:57;;;;;;;34.20;12.70;;;;;;;;;;4980267;28;20460;-77
2021/10/10 05:36:25;;;;;;;30.20;12.43;;;;;;;;;;4982827;28;20504;-77
2021/10/10 05:38:52;;;;;;;30.03;12.20;;;;;;;;;;4978404;28;20567;-77
2021/10/10 05:41:20;;;;;;;28.67;12.33;;;;;;;;;;4989643;28;20527;-77
2021/10/10 05:43:47;;;;;;;35.67;12.67;;;;;;;;;;4997524;28;20453;-77
2021/10/10 05:46:15;;;;;;;29.50;12.63;;;;;;;;;;4985710;28;20496;-77
2021/10/10 05:48:42;;;;;;;29.93;12.07;;;;;;;;;;4987123;28;20490;-77
2021/10/10 05:51:09;;;;;;;34.47;12.97;;;;;;;;;;4991270;28;20499;-77
2021/10/10 05:53:38;;;;;;;27.90;11.90;;;;;;;;;;4988609;28;20495;-78
2021/10/10 05:56:05;;;;;;;32.00;13.13;;;;;;;;;;4984794;28;20469;-76
2021/10/10 05:58:40;;;;;;;32.80;13.40;;;;;;;;;;4987081;28;20503;-78
2021/10/10 06:01:07;;;;;;;38.27;15.13;;;;;;;;;;4986654;28;20789;-78
2021/10/10 06:03:34;;;;;;;39.37;13.17;;;;;;;;;;4987748;28;20487;-77
2021/10/10 06:06:01;;;;;;;33.90;13.27;;;;;;;;;;4987361;28;20501;-78
2021/10/10 06:08:29;;;;;;;33.23;13.77;;;;;;;;;;4987603;28;20492;-77
2021/10/10 06:10:56;;;;;;;36.73;13.07;;;;;;;;;;4987193;28;20253;-77
2021/10/10 06:13:23;;;;;;;40.43;14.27;;;;;;;;;;4989644;28;20456;-78
2021/10/10 06:15:52;;;;;;;32.80;13.60;;;;;;;;;;4989669;28;20452;-78
2021/10/10 06:18:19;;;;;;;34.80;13.53;;;;;;;;;;4989365;28;20554;-77
2021/10/10 06:20:46;;;;;;;49.50;14.67;;;;;;;;;;4987245;28;20555;-79
2021/10/10 06:23:13;;;;;;;39.10;13.73;;;;;;;;;;4989503;28;20299;-78
2021/10/10 06:25:41;;;;;;;42.67;14.33;;;;;;;;;;4987594;28;20464;-78
2021/10/10 06:28:08;;;;;;;39.50;15.27;;;;;;;;;;4986603;28;20379;-78
2021/10/10 06:30:40;;;;;;;43.20;14.20;;;;;;;;;;4986792;28;20551;-77
2021/10/10 06:33:10;;;;;;;40.77;14.00;;;;;;;;;;4986091;28;20556;-78
2021/10/10 06:35:37;;;;;;;37.50;15.40;;;;;;;;;;4986862;28;20535;-78
2021/10/10 06:38:04;;;;;;;42.40;16.07;;;;;;;;;;4987190;28;20483;-77
2021/10/10 06:40:31;;;;;;;39.23;15.87;;;;;;;;;;4985498;28;20256;-78
2021/10/10 06:42:59;;;;;;;40.53;15.13;;;;;;;;;;4984529;28;20210;-77
2021/10/10 06:45:26;;;;;;;37.77;15.00;;;;;;;;;;4983054;28;20256;-78
2021/10/10 06:47:53;;;;;;;35.00;14.43;;;;;;;;;;4992799;28;20272;-76
2021/10/10 06:50:22;;;;;;;35.83;14.07;;;;;;;;;;4999803;28;20229;-77
2021/10/10 06:52:49;;;;;;;40.23;14.73;;;;;;;;;;4987185;28;20240;-78
2021/10/10 06:55:16;;;;;;;44.23;15.90;;;;;;;;;;4983385;28;20734;-77
2021/10/10 06:57:44;;;;;;;38.57;14.97;;;;;;;;;;4985517;28;20248;-77
2021/10/10 07:00:12;;;;;;;40.37;15.23;;;;;;;;;;4985988;28;20383;-77
2021/10/10 07:02:42;;;;;;;41.47;15.00;;;;;;;;;;4983779;28;21089;-77
2021/10/10 07:05:09;;;;;;;36.47;14.63;;;;;;;;;;4984383;28;20216;-78
2021/10/10 07:07:38;;;;;;;39.67;14.47;;;;;;;;;;4985580;28;20726;-78
2021/10/10 07:10:06;;;;;;;33.07;13.93;;;;;;;;;;4985291;28;20320;-77
2021/10/10 07:12:33;;;;;;;28.97;12.90;;;;;;;;;;4983436;28;20229;-77
2021/10/10 07:15:01;;;;;;;34.37;13.17;;;;;;;;;;4984826;28;20265;-77
2021/10/10 07:17:29;;;;;;;31.47;14.40;;;;;;;;;;4985982;28;20205;-77
2021/10/10 07:19:59;;;;;;;31.60;14.50;;;;;;;;;;4984843;28;20711;-78
2021/10/10 07:22:30;;;;;;;38.27;14.43;;;;;;;;;;4984497;28;20731;-78
2021/10/10 07:25:05;;;;;;;27.53;11.50;;;;;;;;;;4984073;28;20217;-78
2021/10/10 07:27:33;;;;;;;28.80;13.17;;;;;;;;;;4980645;28;20526;-78
2021/10/10 07:30:01;;;;;;;25.87;12.30;;;;;;;;;;4985282;28;20347;-77
2021/10/10 07:32:28;;;;;;;29.90;13.73;;;;;;;;;;4984500;28;20206;-78
2021/10/10 07:34:56;;;;;;;28.20;13.00;;;;;;;;;;4984528;28;20210;-77
2021/10/10 07:37:25;;;;;;;29.10;13.67;;;;;;;;;;4971340;23;20297;-83
2021/10/10 07:39:53;;;;;;;28.20;13.30;;;;;;;;;;4965202;28;20292;-83
2021/10/10 07:42:41;;;;;;;22.13;11.17;;;;;;;;;;4965802;28;20222;-81
2021/10/10 07:45:12;;;;;;;25.97;11.10;;;;;;;;;;4952206;28;20983;-82
2021/10/10 07:56:29;;;;;;;17.87;10.03;;;;;;;;;;4919471;23;20262;-77
2021/10/10 07:58:56;;;;;;;15.80;9.37;;;;;;;;;;4915912;29;20294;-78
2021/10/10 08:01:24;;;;;;;17.80;9.30;;;;;;;;;;4933649;28;20336;-78
2021/10/10 08:03:52;;;;;;;16.43;9.20;;;;;;;;;;4934390;28;20214;-77
2021/10/10 08:06:19;;;;;;;16.33;8.87;;;;;;;;;;4937751;28;20213;-77
2021/10/10 08:08:46;;;;;;;17.03;8.93;;;;;;;;;;4935505;28;20698;-78
2021/10/10 08:11:13;;;;;;;15.03;8.80;;;;;;;;;;4936804;28;20905;-78
2021/10/10 08:13:40;;;;;;;16.57;8.70;;;;;;;;;;4936992;28;20289;-78
2021/10/10 08:16:08;;;;;;;14.73;8.00;;;;;;;;;;4946836;28;20226;-77
2021/10/10 08:18:36;;;;;;;16.87;9.27;;;;;;;;;;4937957;28;20217;-78
2021/10/10 08:21:03;;;;;;;15.07;8.80;;;;;;;;;;4936491;28;20735;-77
2021/10/10 08:23:31;;;;;;;16.40;8.90;;;;;;;;;;4937978;28;20292;-77
2021/10/10 08:25:58;;;;;;;15.50;8.87;;;;;;;;;;4931635;28;20333;-77
2021/10/10 08:28:25;;;;;;;16.97;9.57;;;;;;;;;;4936748;28;20233;-77
2021/10/10 08:30:53;;;;;;;17.93;9.87;;;;;;;;;;4938669;28;20234;-77
2021/10/10 08:33:20;;;;;;;18.43;10.17;;;;;;;;;;4936540;28;20780;-77
2021/10/10 08:35:49;;;;;;;20.07;10.67;;;;;;;;;;4934772;28;20304;-77
2021/10/10 08:38:16;;;;;;;19.43;10.67;;;;;;;;;;4936217;28;20756;-76
2021/10/10 08:40:44;;;;;;;24.40;11.40;;;;;;;;;;4938468;28;20359;-77
2021/10/10 08:43:13;;;;;;;22.83;11.57;;;;;;;;;;4938032;28;20205;-77
2021/10/10 08:45:42;;;;;;;18.93;10.47;;;;;;;;;;4934510;28;20218;-75
2021/10/10 08:48:10;;;;;;;19.80;11.30;;;;;;;;;;4938480;28;20226;-76
2021/10/10 08:50:37;;;;;;;21.27;10.77;;;;;;;;;;4940912;28;20313;-76
2021/10/10 08:53:07;;;;;;;20.63;10.60;;;;;;;;;;4942650;28;20206;-76
2021/10/10 08:55:34;;;;;;;22.80;11.77;;;;;;;;;;4942020;28;20206;-75
2021/10/10 08:58:03;;;;;;;23.57;11.40;;;;;;;;;;4938701;28;20220;-76
2021/10/10 09:00:32;;;;;;;24.40;11.53;;;;;;;;;;4935336;28;20273;-76
2021/10/10 09:03:00;;;;;;;20.17;11.43;;;;;;;;;;4933615;28;20702;-75
2021/10/10 09:05:27;;;;;;;28.03;10.47;;;;;;;;;;4938319;28;20330;-75
2021/10/10 09:07:54;;;;;;;19.33;10.37;;;;;;;;;;4942093;28;20414;-76
2021/10/10 09:10:27;;;;;;;25.33;12.37;;;;;;;;;;4938927;28;20230;-76
2021/10/10 09:12:55;;;;;;;23.10;11.63;;;;;;;;;;4946228;28;20202;-76
2021/10/10 09:15:23;;;;;;;25.37;11.80;;;;;;;;;;4945564;28;20302;-75
2021/10/10 09:17:54;;;;;;;25.53;11.83;;;;;;;;;;4947981;28;20206;-76
2021/10/10 09:20:28;;;;;;;21.77;11.23;;;;;;;;;;4947448;28;20238;-75
2021/10/10 09:22:55;;;;;;;22.70;11.03;;;;;;;;;;4949330;28;20289;-76
2021/10/10 09:25:24;;;;;;;22.77;11.90;;;;;;;;;;4954218;28;20289;-76
2021/10/10 09:27:51;;;;;;;25.80;12.17;;;;;;;;;;4954354;28;20225;-75
2021/10/10 09:30:21;;;;;;;25.60;12.33;;;;;;;;;;4952313;28;20222;-77
2021/10/10 09:32:54;;;;;;;23.13;11.87;;;;;;;;;;4952780;28;20199;-76
2021/10/10 09:35:25;;;;;;;22.00;11.10;;;;;;;;;;4948968;28;20309;-76
2021/10/10 09:38:04;;;;;;;19.73;10.37;;;;;;;;;;4947309;28;20249;-76
2021/10/10 09:40:35;;;;;;;20.33;10.10;;;;;;;;;;4946765;28;20586;-76
2021/10/10 09:43:05;;;;;;;22.77;11.80;;;;;;;;;;4948038;28;20484;-75
2021/10/10 09:45:39;;;;;;;20.60;11.07;;;;;;;;;;4954210;28;20204;-77
2021/10/10 09:48:07;;;;;;;21.90;9.93;;;;;;;;;;4952929;28;20236;-75
2021/10/10 09:50:35;;;;;;;16.83;8.90;;;;;;;;;;4953609;28;20265;-78
2021/10/10 09:53:02;;;;;;;21.40;10.90;;;;;;;;;;4951465;28;20202;-76
2021/10/10 09:55:30;;;;;;;22.77;11.87;;;;;;;;;;4954976;28;20222;-77
2021/10/10 09:57:59;;;;;;;21.20;10.80;;;;;;;;;;4952501;28;20252;-76
2021/10/10 10:00:27;;;;;;;14.57;7.33;;;;;;;;;;4952392;28;20257;-75
2021/10/10 10:03:01;;;;;;;14.27;8.60;;;;;;;;;;4950545;28;20293;-75
2021/10/10 10:05:29;;;;;;;19.13;8.83;;;;;;;;;;4950914;28;20424;-77
2021/10/10 10:07:57;;;;;;;13.70;7.40;;;;;;;;;;4949918;28;20236;-75
2021/10/10 10:10:26;;;;;;;17.77;8.17;;;;;;;;;;4950155;28;20308;-76
2021/10/10 10:12:53;;;;;;;16.07;7.93;;;;;;;;;;4948425;28;20233;-77
2021/10/10 10:15:26;;;;;;;15.97;7.93;;;;;;;;;;4945983;28;20204;-77
2021/10/10 10:17:54;;;;;;;20.10;7.80;;;;;;;;;;4953117;28;20285;-82
2021/10/10 10:20:21;;;;;;;13.33;7.57;;;;;;;;;;4954786;28;20712;-77
2021/10/10 10:22:51;;;;;;;12.90;6.67;;;;;;;;;;4949890;28;20245;-79
2021/10/10 10:25:18;;;;;;;14.23;7.07;;;;;;;;;;4951099;28;20243;-77
2021/10/10 10:27:46;;;;;;;14.43;7.00;;;;;;;;;;4951312;28;20927;-77
2021/10/10 10:30:13;;;;;;;13.60;7.43;;;;;;;;;;4959979;28;20479;-77
2021/10/10 10:32:42;;;;;;;15.40;7.10;;;;;;;;;;4961778;28;20206;-77
2021/10/10 10:35:11;;;;;;;12.83;6.37;;;;;;;;;;4950929;28;20317;-77
2021/10/10 10:37:48;;;;;;;12.37;6.93;;;;;;;;;;4951140;28;20293;-77
2021/10/10 10:40:45;;;;;;;16.07;7.83;;;;;;;;;;4953597;28;20237;-75
2021/10/10 10:43:13;;;;;;;14.20;6.23;;;;;;;;;;4951694;28;20210;-75
2021/10/10 10:45:45;;;;;;;14.20;6.23;;;;;;;;;;4956106;28;20214;-77
2021/10/10 10:48:27;;;;;;;12.53;6.97;;;;;;;;;;4951693;28;20221;-80
2021/10/10 10:51:16;;;;;;;15.50;7.57;;;;;;;;;;4947176;28;20234;-77
2021/10/10 10:53:43;;;;;;;16.03;7.00;;;;;;;;;;4950589;28;20298;-77
2021/10/10 10:56:25;;;;;;;14.20;6.97;;;;;;;;;;4951583;28;20265;-77
2021/10/10 10:58:53;;;;;;;12.30;6.80;;;;;;;;;;4951336;28;20991;-76
2021/10/10 11:01:20;;;;;;;12.57;6.50;;;;;;;;;;4948271;28;20238;-77
2021/10/10 11:03:47;;;;;;;12.30;6.50;;;;;;;;;;4948356;28;20299;-77
2021/10/10 11:06:22;;;;;;;9.17;5.20;;;;;;;;;;4952033;28;20285;-76
2021/10/10 11:08:50;;;;;;;18.50;6.87;;;;;;;;;;4950181;28;20265;-77
2021/10/10 11:11:22;;;;;;;13.27;6.70;;;;;;;;;;4951813;28;20223;-77
2021/10/10 11:13:50;;;;;;;12.60;6.37;;;;;;;;;;4952049;28;20322;-77
2021/10/10 11:16:18;;;;;;;10.50;5.90;;;;;;;;;;4954203;28;20265;-78
2021/10/10 11:18:46;;;;;;;14.77;6.00;;;;;;;;;;4952063;28;20202;-77
2021/10/10 11:21:14;;;;;;;11.70;5.83;;;;;;;;;;4955291;28;20313;-78
2021/10/10 11:23:43;;;;;;;13.30;6.60;;;;;;;;;;4954573;28;20646;-78
2021/10/10 11:26:11;;;;;;;17.00;6.37;;;;;;;;;;4955189;28;20249;-78
2021/10/10 11:28:39;;;;;;;19.87;6.87;;;;;;;;;;4955252;28;20304;-77
2021/10/10 11:31:07;;;;;;;13.37;6.63;;;;;;;;;;4953881;28;20258;-77
2021/10/10 11:33:36;;;;;;;13.23;6.40;;;;;;;;;;4955003;28;20198;-77
2021/10/10 11:36:03;;;;;;;13.20;6.27;;;;;;;;;;4949913;28;20199;-77
2021/10/10 11:38:30;;;;;;;14.33;6.10;;;;;;;;;;4953304;28;20230;-77
2021/10/10 11:41:02;;;;;;;9.80;5.90;;;;;;;;;;4956150;28;20254;-76
2021/10/10 11:43:29;;;;;;;15.30;5.83;;;;;;;;;;4949427;28;20759;-78
2021/10/10 11:46:02;;;;;;;14.60;5.90;;;;;;;;;;4944975;28;21357;-77
2021/10/10 11:48:34;;;;;;;13.50;5.60;;;;;;;;;;4922443;28;20223;-75
2021/10/10 11:51:01;;;;;;;12.03;6.27;;;;;;;;;;4930141;28;20222;-77
2021/10/10 11:53:42;;;;;;;15.77;6.10;;;;;;;;;;4941082;28;20209;-76
2021/10/10 11:56:10;;;;;;;12.43;6.30;;;;;;;;;;4932084;28;20640;-75
2021/10/10 11:58:38;;;;;;;13.83;5.40;;;;;;;;;;4929158;28;20224;-77
2021/10/10 12:01:09;;;;;;;13.83;5.93;;;;;;;;;;4932985;28;20226;-76
2021/10/10 12:03:36;;;;;;;16.33;6.70;;;;;;;;;;4944306;28;20204;-76
2021/10/10 12:06:08;;;;;;;13.20;5.90;;;;;;;;;;4933817;28;20210;-76
2021/10/10 12:08:35;;;;;;;13.13;5.90;;;;;;;;;;4932674;28;20237;-78
2021/10/10 12:11:10;;;;;;;11.43;5.83;;;;;;;;;;4944615;28;20317;-77
2021/10/10 12:13:38;;;;;;;14.83;6.20;;;;;;;;;;4944839;28;20293;-78
2021/10/10 12:16:06;;;;;;;18.37;6.77;;;;;;;;;;4946897;28;20278;-77
2021/10/10 12:18:34;;;;;;;10.23;5.53;;;;;;;;;;4941491;28;20220;-78
2021/10/10 12:21:21;;;;;;;10.60;5.63;;;;;;;;;;4944521;28;20326;-78
2021/10/10 12:24:02;;;;;;;11.07;5.63;;;;;;;;;;4945153;28;20575;-76
2021/10/10 12:26:30;;;;;;;12.67;5.93;;;;;;;;;;4940324;28;20297;-76
2021/10/10 12:28:58;;;;;;;14.07;5.60;;;;;;;;;;4937690;28;20230;-77
2021/10/10 12:31:26;;;;;;;13.63;5.80;;;;;;;;;;4942905;28;20663;-78
2021/10/10 12:34:09;;;;;;;11.53;6.00;;;;;;;;;;4940399;28;20205;-77
2021/10/10 12:36:43;;;;;;;9.20;4.97;;;;;;;;;;4942193;28;20212;-76
2021/10/10 12:39:10;;;;;;;10.43;5.47;;;;;;;;;;4943056;28;20286;-77
2021/10/10 12:41:44;;;;;;;11.90;5.30;;;;;;;;;;4934281;28;20230;-77
2021/10/10 12:44:18;;;;;;;8.97;5.37;;;;;;;;;;4944606;28;20210;-77
2021/10/10 12:46:50;;;;;;;15.23;5.90;;;;;;;;;;4939722;28;20664;-76
2021/10/10 12:49:34;;;;;;;13.73;6.33;;;;;;;;;;4937570;28;20308;-76
2021/10/10 12:52:01;;;;;;;9.57;4.83;;;;;;;;;;4932999;28;20208;-76
2021/10/10 12:54:30;;;;;;;12.57;5.47;;;;;;;;;;4935264;28;20330;-77
2021/10/10 12:57:02;;;;;;;11.13;5.20;;;;;;;;;;4943524;28;20290;-77
2021/10/10 12:59:31;;;;;;;10.70;5.47;;;;;;;;;;4943699;28;20692;-79
2021/10/10 13:01:59;;;;;;;11.73;5.40;;;;;;;;;;4944340;28;20226;-78
2021/10/10 13:04:26;;;;;;;9.60;5.43;;;;;;;;;;4946224;28;20285;-75
2021/10/10 13:06:54;;;;;;;11.73;4.90;;;;;;;;;;4944477;28;20214;-75
2021/10/10 13:09:24;;;;;;;10.30;5.30;;;;;;;;;;4942969;28;20328;-76
2021/10/10 13:11:52;;;;;;;11.20;4.80;;;;;;;;;;4949187;28;20213;-77
2021/10/10 13:14:20;;;;;;;10.00;4.40;;;;;;;;;;4951952;28;20220;-76
2021/10/10 13:16:48;;;;;;;12.37;4.93;;;;;;;;;;4954751;28;20242;-76
2021/10/10 13:19:16;;;;;;;13.17;5.10;;;;;;;;;;4947995;28;20250;-77
2021/10/10 13:21:43;;;;;;;8.83;5.10;;;;;;;;;;4948515;28;20309;-78
2021/10/10 13:24:10;;;;;;;10.43;5.03;;;;;;;;;;4952487;28;20697;-76
2021/10/10 13:26:38;;;;;;;9.90;5.00;;;;;;;;;;4950438;28;20292;-77
2021/10/10 13:29:06;;;;;;;11.50;5.33;;;;;;;;;;4952481;28;20218;-77
2021/10/10 13:31:34;;;;;;;11.83;5.47;;;;;;;;;;4949767;28;20257;-77
2021/10/10 13:34:02;;;;;;;9.67;5.03;;;;;;;;;;4951312;28;20206;-77
2021/10/10 13:36:30;;;;;;;11.23;5.60;;;;;;;;;;4953784;28;20206;-78
2021/10/10 13:38:57;;;;;;;12.70;5.90;;;;;;;;;;4951741;28;20293;-76
2021/10/10 13:41:25;;;;;;;8.87;4.90;;;;;;;;;;4946997;28;21861;-77
2021/10/10 13:43:52;;;;;;;11.83;5.70;;;;;;;;;;4945240;28;20203;-77
2021/10/10 13:46:19;;;;;;;11.57;5.20;;;;;;;;;;4949267;28;20277;-78
2021/10/10 13:48:47;;;;;;;11.37;5.37;;;;;;;;;;4940486;28;20278;-77
2021/10/10 13:51:15;;;;;;;13.90;5.93;;;;;;;;;;4944823;28;20321;-79
2021/10/10 13:53:42;;;;;;;11.77;4.93;;;;;;;;;;4958374;28;20293;-77
2021/10/10 13:56:09;;;;;;;12.67;5.70;;;;;;;;;;4941501;28;20218;-78
2021/10/10 13:58:37;;;;;;;8.00;4.83;;;;;;;;;;4936725;28;20245;-77
2021/10/10 14:01:04;;;;;;;13.43;5.43;;;;;;;;;;4932433;28;20668;-75
2021/10/10 14:03:31;;;;;;;11.17;5.37;;;;;;;;;;4938111;28;20277;-75
2021/10/10 14:05:59;;;;;;;10.30;5.60;;;;;;;;;;4949340;28;20617;-77
2021/10/10 14:08:27;;;;;;;10.47;5.43;;;;;;;;;;4950999;28;20210;-77
2021/10/10 14:11:00;;;;;;;10.90;5.30;;;;;;;;;;4947717;28;20688;-77
2021/10/10 14:13:32;;;;;;;11.00;4.77;;;;;;;;;;4939326;28;20214;-77
2021/10/10 14:16:00;;;;;;;10.17;5.03;;;;;;;;;;4935525;28;20210;-77
2021/10/10 14:18:28;;;;;;;9.37;4.83;;;;;;;;;;4953638;28;20305;-77
2021/10/10 14:20:55;;;;;;;9.37;4.70;;;;;;;;;;4950879;28;20656;-76
2021/10/10 14:23:22;;;;;;;9.77;5.30;;;;;;;;;;4951614;28;20214;-76
2021/10/10 14:25:51;;;;;;;12.10;4.93;;;;;;;;;;4952451;28;20206;-83
2021/10/10 14:28:18;;;;;;;10.67;5.30;;;;;;;;;;4949551;28;20318;-77
2021/10/10 14:30:46;;;;;;;9.20;4.80;;;;;;;;;;4986187;23;20297;-78
2021/10/10 14:33:15;;;;;;;8.60;4.60;;;;;;;;;;4967940;28;20619;-77
2021/10/10 14:35:43;;;;;;;9.13;5.07;;;;;;;;;;4960907;28;20337;-76
2021/10/10 14:38:10;;;;;;;11.10;5.23;;;;;;;;;;4963832;28;20215;-77
2021/10/10 14:40:42;;;;;;;11.63;4.30;;;;;;;;;;4961359;28;20222;-78
2021/10/10 14:43:12;;;;;;;7.33;4.30;;;;;;;;;;4953161;28;20203;-77